createdAt,value
2024-03-26T00:00:07.506Z,22.70
2024-03-26T00:02:34.852Z,22.50
2024-03-26T00:05:01.833Z,21.30
2024-03-26T00:07:28.757Z,21.30
2024-03-26T00:09:55.772Z,20.30
2024-03-26T00:12:22.816Z,20.60
2024-03-26T00:14:49.619Z,20.50
2024-03-26T00:17:16.607Z,18.80
2024-03-26T00:19:43.742Z,20.60
2024-03-26T00:22:10.840Z,21.30
2024-03-26T00:24:37.709Z,21.00
2024-03-26T00:27:04.576Z,22.40
2024-03-26T00:29:31.412Z,19.70
2024-03-26T00:31:58.307Z,21.20
2024-03-26T00:34:25.358Z,20.50
2024-03-26T00:36:52.343Z,20.00
2024-03-26T00:39:19.393Z,19.50
2024-03-26T00:41:46.489Z,19.00
2024-03-26T00:44:13.392Z,18.70
2024-03-26T00:46:40.386Z,18.20
2024-03-26T00:49:07.259Z,18.20
2024-03-26T00:51:34.999Z,19.00
2024-03-26T00:54:01.871Z,18.50
2024-03-26T00:56:29.034Z,18.30
2024-03-26T00:58:56.206Z,19.30
2024-03-26T01:01:23.223Z,17.10
2024-03-26T01:03:52.299Z,18.90
2024-03-26T01:06:19.331Z,19.00
2024-03-26T01:08:46.240Z,17.60
2024-03-26T01:11:13.796Z,17.90
2024-03-26T01:13:41.217Z,18.40
2024-03-26T01:16:08.408Z,18.00
2024-03-26T01:18:36.405Z,17.30
2024-03-26T01:21:03.845Z,16.20
2024-03-26T01:23:30.887Z,16.50
2024-03-26T01:25:57.846Z,18.00
2024-03-26T01:28:24.779Z,20.20
2024-03-26T01:30:51.784Z,19.60
2024-03-26T01:33:18.626Z,18.80
2024-03-26T01:35:53.049Z,19.60
2024-03-26T01:38:19.926Z,19.70
2024-03-26T01:40:47.022Z,17.60
2024-03-26T01:43:14.014Z,18.20
2024-03-26T01:45:41.324Z,17.30
2024-03-26T01:48:09.893Z,18.50
2024-03-26T01:50:37.605Z,17.70
2024-03-26T01:53:05.525Z,17.60
2024-03-26T01:55:34.396Z,17.20
2024-03-26T01:58:02.950Z,18.40
2024-03-26T02:00:30.791Z,18.20
2024-03-26T02:02:58.141Z,18.30
2024-03-26T02:05:25.279Z,18.80
2024-03-26T02:07:52.373Z,17.60
2024-03-26T02:10:20.117Z,17.70
2024-03-26T02:12:47.054Z,16.70
2024-03-26T02:15:13.996Z,17.50
2024-03-26T02:17:40.883Z,17.80
2024-03-26T02:20:08.766Z,17.50
2024-03-26T02:22:35.755Z,16.50
2024-03-26T02:25:02.715Z,16.30
2024-03-26T02:27:29.670Z,16.20
2024-03-26T02:29:56.601Z,17.50
2024-03-26T02:32:23.567Z,18.10
2024-03-26T02:34:51.299Z,16.80
2024-03-26T02:37:18.454Z,16.30
2024-03-26T02:39:45.422Z,16.50
2024-03-26T02:42:12.929Z,15.00
2024-03-26T02:44:39.779Z,15.20
2024-03-26T02:47:06.792Z,14.80
2024-03-26T02:49:33.685Z,14.50
2024-03-26T02:52:00.753Z,14.80
2024-03-26T02:54:27.782Z,13.50
2024-03-26T02:56:55.028Z,15.10
2024-03-26T02:59:21.951Z,15.30
2024-03-26T03:01:48.795Z,15.80
2024-03-26T03:04:15.792Z,16.50
2024-03-26T03:06:42.657Z,15.60
2024-03-26T03:09:12.856Z,15.30
2024-03-26T03:11:40.126Z,14.50
2024-03-26T03:14:07.236Z,14.40
2024-03-26T03:16:34.100Z,15.00
2024-03-26T03:19:01.258Z,13.40
2024-03-26T03:21:28.378Z,14.50
2024-03-26T03:23:55.393Z,15.50
2024-03-26T03:26:22.395Z,15.60
2024-03-26T03:28:49.345Z,17.00
2024-03-26T03:31:16.270Z,12.90
2024-03-26T03:33:43.213Z,16.30
2024-03-26T03:36:10.123Z,18.70
2024-03-26T03:38:37.163Z,18.30
2024-03-26T03:41:03.972Z,14.50
2024-03-26T03:43:30.787Z,15.80
2024-03-26T03:45:57.886Z,14.20
2024-03-26T03:48:24.974Z,14.30
2024-03-26T03:50:51.777Z,13.50
2024-03-26T03:53:18.780Z,13.60
2024-03-26T03:55:45.669Z,14.00
2024-03-26T03:58:12.548Z,15.30
2024-03-26T04:00:39.434Z,16.60
2024-03-26T04:03:06.563Z,15.60
2024-03-26T04:05:37.834Z,16.70
2024-03-26T04:08:05.423Z,16.90
2024-03-26T04:10:32.347Z,17.40
2024-03-26T04:12:59.144Z,16.10
2024-03-26T04:15:26.096Z,15.40
2024-03-26T04:17:53.297Z,15.60
2024-03-26T04:20:20.200Z,16.40
2024-03-26T04:22:49.901Z,14.40
2024-03-26T04:25:16.883Z,14.20
2024-03-26T04:27:43.671Z,16.10
2024-03-26T04:30:10.986Z,15.20
2024-03-26T04:32:38.402Z,15.70
2024-03-26T04:35:05.538Z,16.30
2024-03-26T04:37:32.411Z,15.90
2024-03-26T04:39:59.276Z,15.00
2024-03-26T04:42:26.316Z,16.10
2024-03-26T04:44:53.327Z,14.60
2024-03-26T04:47:20.425Z,15.00
2024-03-26T04:49:47.375Z,14.10
2024-03-26T04:52:14.294Z,15.50
2024-03-26T04:54:41.298Z,16.00
2024-03-26T04:57:08.257Z,14.70
2024-03-26T04:59:35.232Z,14.70
2024-03-26T05:02:02.109Z,14.40
2024-03-26T05:04:28.985Z,15.80
2024-03-26T05:06:55.934Z,16.50
2024-03-26T05:09:22.962Z,14.50
2024-03-26T05:11:50.256Z,14.40
2024-03-26T05:14:17.125Z,13.80
2024-03-26T05:16:43.994Z,13.20
2024-03-26T05:19:11.225Z,13.60
2024-03-26T05:21:38.084Z,13.40
2024-03-26T05:24:05.267Z,11.90
2024-03-26T05:26:32.300Z,13.30
2024-03-26T05:28:59.184Z,13.30
2024-03-26T05:31:26.413Z,13.40
2024-03-26T05:33:53.564Z,14.00
2024-03-26T05:36:20.535Z,13.60
2024-03-26T05:38:47.565Z,12.10
2024-03-26T05:41:14.547Z,12.50
2024-03-26T05:43:41.365Z,11.80
2024-03-26T05:46:08.263Z,12.20
2024-03-26T05:48:35.355Z,11.70
2024-03-26T05:51:02.350Z,12.40
2024-03-26T05:53:29.150Z,12.90
2024-03-26T05:55:56.188Z,59.20
2024-03-26T05:58:23.345Z,38.50
2024-03-26T06:00:50.513Z,17.90
2024-03-26T06:03:17.438Z,18.10
2024-03-26T06:05:44.400Z,16.00
2024-03-26T06:08:11.348Z,17.40
2024-03-26T06:10:38.300Z,17.10
2024-03-26T06:13:07.611Z,19.00
2024-03-26T06:15:34.652Z,15.90
2024-03-26T06:18:01.557Z,16.30
2024-03-26T06:20:28.495Z,16.30
2024-03-26T06:22:55.439Z,15.60
2024-03-26T06:25:22.699Z,14.70
2024-03-26T06:27:49.625Z,13.50
2024-03-26T06:30:16.594Z,12.60
2024-03-26T06:32:43.673Z,13.50
2024-03-26T06:35:10.552Z,13.60
2024-03-26T06:37:37.470Z,12.60
2024-03-26T06:40:04.957Z,13.00
2024-03-26T06:42:31.879Z,14.20
2024-03-26T06:44:58.804Z,14.80
2024-03-26T06:47:25.904Z,16.10
2024-03-26T06:49:52.884Z,13.20
2024-03-26T06:52:19.726Z,14.70
2024-03-26T06:54:46.821Z,13.20
2024-03-26T06:57:13.621Z,13.60
2024-03-26T06:59:40.612Z,13.30
2024-03-26T07:02:09.220Z,12.80
2024-03-26T07:04:36.140Z,12.20
2024-03-26T07:07:03.201Z,13.30
2024-03-26T07:09:31.631Z,13.70
2024-03-26T07:11:58.448Z,13.30
2024-03-26T07:14:25.513Z,13.70
2024-03-26T07:16:52.488Z,13.60
2024-03-26T07:19:19.349Z,14.50
2024-03-26T07:21:46.280Z,14.60
2024-03-26T07:24:13.229Z,14.60
2024-03-26T07:26:40.178Z,15.10
2024-03-26T07:29:07.195Z,14.40
2024-03-26T07:31:34.096Z,15.10
2024-03-26T07:34:00.989Z,14.70
2024-03-26T07:36:28.183Z,14.30
2024-03-26T07:38:55.312Z,13.20
2024-03-26T07:41:23.577Z,12.60
2024-03-26T07:43:50.698Z,13.60
2024-03-26T07:46:17.644Z,12.60
2024-03-26T07:48:47.462Z,13.70
2024-03-26T07:51:14.666Z,14.30
2024-03-26T07:53:41.582Z,15.80
2024-03-26T07:56:08.477Z,14.00
2024-03-26T07:58:35.495Z,15.30
2024-03-26T08:01:03.866Z,12.90
2024-03-26T08:03:30.887Z,13.40
2024-03-26T08:05:57.843Z,12.90
2024-03-26T08:08:25.505Z,13.40
2024-03-26T08:10:52.488Z,14.00
2024-03-26T08:13:19.397Z,13.30
2024-03-26T08:15:46.764Z,13.60
2024-03-26T08:18:13.800Z,13.10
2024-03-26T08:20:44.550Z,15.70
2024-03-26T08:23:11.580Z,13.10
2024-03-26T08:25:39.612Z,15.30
2024-03-26T08:28:06.823Z,16.10
2024-03-26T08:30:33.932Z,16.50
2024-03-26T08:33:01.248Z,15.50
2024-03-26T08:35:28.333Z,13.50
2024-03-26T08:37:55.588Z,14.00
2024-03-26T08:40:23.845Z,15.70
2024-03-26T08:42:50.733Z,16.70
2024-03-26T08:45:17.634Z,17.70
2024-03-26T08:47:44.765Z,18.40
2024-03-26T08:50:11.621Z,16.60
2024-03-26T08:52:38.505Z,17.50
2024-03-26T08:55:05.700Z,18.50
2024-03-26T08:57:32.686Z,18.50
2024-03-26T08:59:59.634Z,16.40
2024-03-26T09:02:26.539Z,16.10
2024-03-26T09:04:53.730Z,14.70
2024-03-26T09:07:20.632Z,13.70
2024-03-26T09:09:47.616Z,13.00
2024-03-26T09:12:14.438Z,12.10
2024-03-26T09:14:41.416Z,10.30
2024-03-26T09:17:08.414Z,8.80
2024-03-26T09:19:35.324Z,9.80
2024-03-26T09:22:02.273Z,9.50
2024-03-26T09:24:36.432Z,10.10
2024-03-26T09:27:11.008Z,10.10
2024-03-26T09:29:38.021Z,9.10
2024-03-26T09:32:05.378Z,9.40
2024-03-26T09:34:32.297Z,9.60
2024-03-26T09:37:00.090Z,9.00
2024-03-26T09:39:27.011Z,9.60
2024-03-26T09:41:58.201Z,6.70
2024-03-26T09:44:30.123Z,8.40
2024-03-26T09:47:02.486Z,8.20
2024-03-26T09:49:29.784Z,10.70
2024-03-26T09:51:59.742Z,9.20
2024-03-26T09:54:27.910Z,9.40
2024-03-26T09:56:55.832Z,9.80
2024-03-26T09:59:22.895Z,10.20
2024-03-26T10:01:51.334Z,11.10
2024-03-26T10:04:18.595Z,12.10
2024-03-26T10:06:45.939Z,12.60
2024-03-26T10:09:12.988Z,13.10
2024-03-26T10:11:42.733Z,13.80
2024-03-26T10:14:10.121Z,14.00
2024-03-26T10:16:41.409Z,13.30
2024-03-26T10:19:08.370Z,14.40
2024-03-26T10:21:35.495Z,13.50
2024-03-26T10:24:02.946Z,14.80
2024-03-26T10:26:29.847Z,15.50
2024-03-26T10:28:56.760Z,14.60
2024-03-26T10:31:24.584Z,15.30
2024-03-26T10:33:51.496Z,15.70
2024-03-26T10:36:20.468Z,15.40
2024-03-26T10:38:57.044Z,16.20
2024-03-26T10:41:34.038Z,16.50
2024-03-26T10:44:02.471Z,15.60
2024-03-26T10:46:31.201Z,16.00
2024-03-26T10:49:08.462Z,17.30
2024-03-26T10:51:37.300Z,15.50
2024-03-26T10:54:04.845Z,16.60
2024-03-26T10:56:33.557Z,16.70
2024-03-26T10:59:00.959Z,15.30
2024-03-26T11:01:30.181Z,14.90
2024-03-26T11:03:58.992Z,16.30
2024-03-26T11:06:29.029Z,15.20
2024-03-26T11:09:03.081Z,16.40
2024-03-26T11:11:35.283Z,16.00
2024-03-26T11:14:05.061Z,16.00
2024-03-26T11:16:41.442Z,16.20
2024-03-26T11:19:17.369Z,16.30
2024-03-26T11:25:22.284Z,15.70
2024-03-26T11:27:50.681Z,14.40
2024-03-26T11:30:17.795Z,17.20
2024-03-26T11:32:45.207Z,16.10
2024-03-26T11:35:21.916Z,16.90
2024-03-26T11:37:50.302Z,15.30
2024-03-26T11:40:18.111Z,14.70
2024-03-26T11:42:46.530Z,15.10
2024-03-26T11:45:14.633Z,14.80
2024-03-26T11:47:42.502Z,13.60
2024-03-26T11:50:10.082Z,12.60
2024-03-26T11:52:38.377Z,11.70
2024-03-26T11:55:09.581Z,11.70
2024-03-26T11:57:36.927Z,11.20
2024-03-26T12:00:07.261Z,11.30
2024-03-26T12:02:36.323Z,10.40
2024-03-26T12:05:04.498Z,11.10
2024-03-26T12:07:33.777Z,10.00
2024-03-26T12:10:00.972Z,10.80
2024-03-26T12:12:28.064Z,10.60
2024-03-26T12:14:56.558Z,10.50
2024-03-26T12:17:23.558Z,10.80
2024-03-26T12:19:50.832Z,11.00
2024-03-26T12:22:20.102Z,9.90
2024-03-26T12:24:47.403Z,10.10
2024-03-26T12:27:14.811Z,10.20
2024-03-26T12:29:42.195Z,10.90
2024-03-26T12:32:09.518Z,9.90
2024-03-26T12:34:36.627Z,11.30
2024-03-26T12:37:04.026Z,9.20
2024-03-26T12:39:31.876Z,9.90
2024-03-26T12:41:58.722Z,9.40
2024-03-26T12:44:28.160Z,9.00
2024-03-26T12:46:55.095Z,9.10
2024-03-26T12:49:22.253Z,7.90
2024-03-26T12:51:56.049Z,7.60
2024-03-26T12:54:23.622Z,7.10
2024-03-26T12:56:52.878Z,7.10
2024-03-26T12:59:19.726Z,7.00
2024-03-26T13:01:52.449Z,7.80
2024-03-26T13:04:20.943Z,7.90
2024-03-26T13:06:47.856Z,7.40
2024-03-26T13:09:14.806Z,6.60
2024-03-26T13:11:41.977Z,7.90
2024-03-26T13:14:08.901Z,6.90
2024-03-26T13:16:35.947Z,7.70
2024-03-26T13:19:02.887Z,6.80
2024-03-26T13:21:30.134Z,7.00
2024-03-26T13:23:56.989Z,7.30
2024-03-26T13:26:25.150Z,8.90
2024-03-26T13:28:52.510Z,9.30
2024-03-26T13:31:19.536Z,9.50
2024-03-26T13:33:46.526Z,10.30
2024-03-26T13:36:14.390Z,10.20
2024-03-26T13:38:43.072Z,11.60
2024-03-26T13:41:10.923Z,10.70
2024-03-26T13:43:37.847Z,10.70
2024-03-26T13:46:04.666Z,9.30
2024-03-26T13:48:31.587Z,9.60
2024-03-26T13:50:58.654Z,9.00
2024-03-26T13:53:25.636Z,8.60
2024-03-26T13:55:52.474Z,8.90
2024-03-26T13:58:19.410Z,8.00
2024-03-26T14:00:47.394Z,9.60
2024-03-26T14:03:14.505Z,8.60
2024-03-26T14:05:41.631Z,9.10
2024-03-26T14:08:08.567Z,8.20
2024-03-26T14:10:35.633Z,7.90
2024-03-26T14:13:02.475Z,7.40
2024-03-26T14:15:29.427Z,7.40
2024-03-26T14:17:56.305Z,6.20
2024-03-26T14:20:24.007Z,7.70
2024-03-26T14:22:51.501Z,6.90
2024-03-26T14:25:18.953Z,6.70
2024-03-26T14:27:46.378Z,6.30
2024-03-26T14:30:14.946Z,6.80
2024-03-26T14:32:43.056Z,7.30
2024-03-26T14:35:12.412Z,6.90
2024-03-26T14:37:40.166Z,6.80
2024-03-26T14:40:10.721Z,6.40
2024-03-26T14:42:37.601Z,6.60
2024-03-26T14:45:06.245Z,5.80
2024-03-26T14:47:34.089Z,5.80
2024-03-26T14:50:00.938Z,5.50
2024-03-26T14:52:27.885Z,5.80
2024-03-26T14:54:54.843Z,5.20
2024-03-26T14:57:21.662Z,5.30
2024-03-26T14:59:48.633Z,4.70
2024-03-26T15:02:15.640Z,4.90
2024-03-26T15:04:42.564Z,4.90
2024-03-26T15:07:09.968Z,4.90
2024-03-26T15:09:37.687Z,4.90
2024-03-26T15:12:05.012Z,4.70
2024-03-26T15:14:32.906Z,4.60
2024-03-26T15:17:00.114Z,4.50
2024-03-26T15:19:27.067Z,4.40
2024-03-26T15:21:54.368Z,4.60
2024-03-26T15:24:21.405Z,4.10
2024-03-26T15:27:08.800Z,4.90
2024-03-26T15:29:57.414Z,4.40
2024-03-26T15:32:26.151Z,4.50
2024-03-26T15:34:53.422Z,4.70
2024-03-26T15:37:20.544Z,4.60
2024-03-26T15:39:47.750Z,4.80
2024-03-26T15:42:14.772Z,5.10
2024-03-26T15:44:41.895Z,4.60
2024-03-26T15:47:08.799Z,4.40
2024-03-26T15:49:36.324Z,4.40
2024-03-26T15:52:04.386Z,4.60
2024-03-26T15:54:31.449Z,4.40
2024-03-26T15:56:58.441Z,4.90
2024-03-26T15:59:25.468Z,6.00
2024-03-26T16:01:52.331Z,5.90
2024-03-26T16:04:19.268Z,6.00
2024-03-26T16:06:46.495Z,6.00
2024-03-26T16:09:13.536Z,6.70
2024-03-26T16:11:40.628Z,7.40
2024-03-26T16:14:07.479Z,8.00
2024-03-26T16:16:34.351Z,9.00
2024-03-26T16:19:01.593Z,8.70
2024-03-26T16:21:28.589Z,8.90
2024-03-26T17:59:42.586Z,9.10
2024-03-26T18:02:12.425Z,9.10
2024-03-26T18:04:40.723Z,10.10
2024-03-26T18:07:08.877Z,9.50
2024-03-26T18:09:41.656Z,9.10
2024-03-26T18:12:10.475Z,10.00
2024-03-26T18:14:38.695Z,10.70
2024-03-26T18:17:06.778Z,10.30
2024-03-26T18:19:34.907Z,10.10
2024-03-26T18:22:02.960Z,8.80
2024-03-26T18:24:30.926Z,9.20
2024-03-26T18:26:58.948Z,9.60
2024-03-26T18:29:26.887Z,9.20
2024-03-26T18:31:54.972Z,9.00
2024-03-26T18:34:23.032Z,9.10
2024-03-26T18:36:51.062Z,10.50
2024-03-26T18:39:24.459Z,11.20
2024-03-26T18:41:52.793Z,9.50
2024-03-26T18:44:21.472Z,9.00
2024-03-26T18:46:50.054Z,8.60
2024-03-26T18:49:17.972Z,8.80
2024-03-26T18:51:45.982Z,9.00
2024-03-26T18:54:14.223Z,9.70
2024-03-26T18:56:42.211Z,10.10
2024-03-26T18:59:12.253Z,9.60
2024-03-26T19:01:40.555Z,9.30
2024-03-26T19:04:09.366Z,9.50
2024-03-26T19:06:37.386Z,9.70
2024-03-26T19:09:08.717Z,9.10
2024-03-26T19:11:37.118Z,9.60
2024-03-26T19:14:05.194Z,9.30
2024-03-26T19:16:33.710Z,9.80
2024-03-26T19:19:02.909Z,9.70
2024-03-26T19:21:30.902Z,9.40
2024-03-26T19:23:59.093Z,10.00
2024-03-26T19:26:27.392Z,9.10
2024-03-26T19:28:55.767Z,9.80
2024-03-26T19:31:23.932Z,9.30
2024-03-26T19:33:52.048Z,9.30
2024-03-26T19:36:20.585Z,10.00
2024-03-26T19:38:48.693Z,10.40
2024-03-26T19:41:18.013Z,10.20
2024-03-26T19:43:46.581Z,11.50
2024-03-26T19:46:14.585Z,10.20
2024-03-26T19:48:43.662Z,10.60
2024-03-26T19:51:11.691Z,10.90
2024-03-26T19:53:40.694Z,10.90
2024-03-26T19:56:12.330Z,11.80
2024-03-26T19:58:43.381Z,11.80
2024-03-26T20:01:11.755Z,11.40
2024-03-26T20:03:39.826Z,12.20
2024-03-26T20:06:13.192Z,12.10
2024-03-26T20:08:44.548Z,12.10
2024-03-26T20:11:15.099Z,12.60
2024-03-26T20:13:43.344Z,13.30
2024-03-26T20:16:14.408Z,12.60
2024-03-26T20:18:44.140Z,13.60
2024-03-26T20:21:12.499Z,14.10
2024-03-26T20:23:41.564Z,14.30
2024-03-26T20:26:09.937Z,14.00
2024-03-26T20:28:38.288Z,14.00
2024-03-26T20:31:12.383Z,14.10
2024-03-26T20:33:42.121Z,14.00
2024-03-26T20:36:16.929Z,13.40
2024-03-26T20:38:45.186Z,13.40
2024-03-26T20:41:13.133Z,12.90
2024-03-26T20:43:41.323Z,13.30
2024-03-26T20:46:10.125Z,14.00
2024-03-26T20:48:38.251Z,14.30
2024-03-26T20:51:10.662Z,15.20
2024-03-26T20:56:08.589Z,13.40
2024-03-26T20:58:36.761Z,13.60
2024-03-26T21:01:04.932Z,14.20
2024-03-26T21:03:36.002Z,14.60
2024-03-26T21:06:06.219Z,14.20
2024-03-26T21:08:35.263Z,15.50
2024-03-26T21:11:13.235Z,15.10
2024-03-26T21:13:41.456Z,14.50
2024-03-26T21:16:12.228Z,13.60
2024-03-26T21:18:48.648Z,13.70
2024-03-26T21:21:21.049Z,14.10
2024-03-26T21:26:18.757Z,13.10
2024-03-26T21:28:47.395Z,13.00
2024-03-26T21:31:15.546Z,13.60
2024-03-26T21:33:43.913Z,13.20
2024-03-26T21:36:12.487Z,14.00
2024-03-26T21:38:40.800Z,13.50
2024-03-26T21:41:09.077Z,14.50
2024-03-26T21:43:37.077Z,15.90
2024-03-26T21:46:05.134Z,14.70
2024-03-26T21:48:33.316Z,13.10
2024-03-26T21:51:03.018Z,13.80
2024-03-26T21:53:31.055Z,14.40
2024-03-26T21:56:04.047Z,15.90
2024-03-26T21:58:32.196Z,13.50
2024-03-26T22:01:09.548Z,14.90
2024-03-26T22:03:38.170Z,14.70
2024-03-26T22:06:07.800Z,14.10
2024-03-26T22:08:35.975Z,13.90
2024-03-26T22:11:04.190Z,14.00
2024-03-26T22:13:32.748Z,14.60
2024-03-26T22:16:01.811Z,14.20
2024-03-26T22:18:30.234Z,13.30
2024-03-26T22:21:00.525Z,13.90
2024-03-26T22:23:30.335Z,14.40
2024-03-26T22:26:00.481Z,14.30
2024-03-26T22:28:28.794Z,13.50
2024-03-26T22:30:57.044Z,13.90
2024-03-26T22:33:25.272Z,13.90
2024-03-26T22:35:53.268Z,14.50
2024-03-26T22:38:21.362Z,14.70
2024-03-26T22:40:57.559Z,13.00
2024-03-26T22:43:26.463Z,13.60
2024-03-26T22:46:06.455Z,13.40
2024-03-26T22:48:34.467Z,13.00
2024-03-26T22:51:02.496Z,13.40
2024-03-26T22:53:30.533Z,12.90
2024-03-26T22:56:02.541Z,13.30
2024-03-26T22:58:31.295Z,14.60
2024-03-26T23:01:03.491Z,14.10
2024-03-26T23:03:32.095Z,13.90
2024-03-26T23:06:01.479Z,13.40
2024-03-26T23:08:29.811Z,14.60
2024-03-26T23:10:58.185Z,13.70
2024-03-26T23:13:27.552Z,12.80
2024-03-26T23:16:00.563Z,13.50
2024-03-26T23:18:29.187Z,14.50
2024-03-26T23:20:57.484Z,13.10
2024-03-26T23:23:25.688Z,13.40
2024-03-26T23:25:53.895Z,13.10
2024-03-26T23:28:22.046Z,12.40
2024-03-26T23:30:50.149Z,12.30
2024-03-26T23:33:18.508Z,12.50
2024-03-26T23:35:46.729Z,12.20
2024-03-26T23:38:15.311Z,11.50
2024-03-26T23:40:43.321Z,11.90
2024-03-26T23:43:11.310Z,11.70
2024-03-26T23:45:39.349Z,12.30
2024-03-26T23:48:07.579Z,12.00
2024-03-26T23:50:35.607Z,11.80
2024-03-26T23:53:04.126Z,12.00
2024-03-26T23:55:32.906Z,12.00
2024-03-26T23:58:01.845Z,12.20
